Time;durP1;ratioP1;P1;durP2;ratioP2;P2;SDS_P1;SDS_P2;PMS_P1;PMS_P2;Temp;Humidity;BMP_temperature;BMP_pressure;BME280_temperature;BME280_humidity;BME280_pressure;Samples;Min_cycle;Max_cycle;Signal;HPM_P1;HPM_P2
2022/10/04 00:01:57;;;;;;;36.58;13.32;;;;;;;16.46;68.25;101788.31;4907699;28;120178;-72
2022/10/04 00:04:33;;;;;;;34.25;13.52;;;;;;;16.46;68.47;101782.03;4905424;28;119949;-72
2022/10/04 00:07:17;;;;;;;38.23;13.23;;;;;;;16.47;68.33;101781.56;4906311;28;120327;-72
2022/10/04 00:10:03;;;;;;;28.85;11.73;;;;;;;16.47;68.38;101786.31;4907119;28;119735;-72
2022/10/04 00:12:39;;;;;;;28.63;12.35;;;;;;;16.44;68.26;101779.72;4907457;28;119470;-72
2022/10/04 00:15:31;;;;;;;34.33;11.88;;;;;;;16.45;68.09;101784.03;4905221;28;119909;-72
2022/10/04 00:18:04;;;;;;;31.23;11.23;;;;;;;16.39;68.22;101779.59;4909710;28;119874;-72
2022/10/04 00:20:54;;;;;;;23.05;10.82;;;;;;;16.35;68.32;101779.75;4904861;28;120484;-72
2022/10/04 00:23:38;;;;;;;22.75;10.82;;;;;;;16.33;68.21;101784.22;4920506;28;120112;-72
2022/10/04 00:26:22;;;;;;;22.92;11.05;;;;;;;16.32;68.12;101788.19;4906558;28;119875;-72
2022/10/04 00:28:49;;;;;;;22.95;11.30;;;;;;;16.29;68.50;101776.03;4905893;28;120061;-72
2022/10/04 00:31:21;;;;;;;22.48;10.85;;;;;;;16.28;68.38;101775.28;4907454;28;120282;-72
2022/10/04 00:33:50;;;;;;;23.77;11.30;;;;;;;16.28;68.56;101772.50;4902000;28;120075;-72
2022/10/04 00:36:22;;;;;;;26.87;11.77;;;;;;;16.29;68.57;101773.28;4906954;28;119811;-72
2022/10/04 00:39:14;;;;;;;27.67;11.38;;;;;;;16.26;68.36;101763.91;4903509;28;119563;-72
2022/10/04 00:41:56;;;;;;;22.75;10.85;;;;;;;16.30;68.26;101754.66;4909838;28;119820;-72
2022/10/04 00:44:45;;;;;;;23.55;11.10;;;;;;;16.31;68.70;101753.41;4908148;28;120044;-72
2022/10/04 00:47:30;;;;;;;28.98;11.50;;;;;;;16.31;68.35;101748.66;4908074;28;119624;-72
2022/10/04 00:50:16;;;;;;;26.15;10.93;;;;;;;16.33;68.50;101751.00;4903625;28;119881;-71
2022/10/04 00:52:51;;;;;;;22.92;10.63;;;;;;;16.33;68.32;101746.22;4909126;28;120014;-72
2022/10/04 00:55:46;;;;;;;27.05;10.52;;;;;;;16.35;68.34;101743.75;4910822;28;119455;-72
2022/10/04 00:58:34;;;;;;;21.80;9.87;;;;;;;16.34;68.34;101738.69;4909014;28;120409;-72
2022/10/04 01:01:03;;;;;;;23.40;9.82;;;;;;;16.36;67.84;101748.06;4906736;28;119347;-71
2022/10/04 01:03:43;;;;;;;22.40;9.43;;;;;;;16.35;68.26;101732.69;4910542;28;119986;-71
2022/10/04 01:06:11;;;;;;;18.73;9.13;;;;;;;16.37;68.05;101730.22;4909492;28;120402;-71
2022/10/04 01:08:46;;;;;;;19.58;8.55;;;;;;;16.36;68.29;101728.66;4913765;28;119674;-71
2022/10/04 01:11:16;;;;;;;17.38;8.30;;;;;;;16.33;67.81;101737.91;4903665;28;120155;-72
2022/10/04 01:13:54;;;;;;;17.30;8.45;;;;;;;16.31;67.53;101729.28;4909465;28;119603;-72
2022/10/04 01:16:32;;;;;;;20.07;9.00;;;;;;;16.33;68.35;101726.06;4908468;28;120144;-72
2022/10/04 01:19:21;;;;;;;23.77;8.18;;;;;;;16.33;68.19;101720.53;4905727;28;120667;-71
2022/10/04 01:22:01;;;;;;;17.20;8.07;;;;;;;16.33;68.22;101724.06;4919978;28;120037;-71
2022/10/04 01:24:35;;;;;;;16.67;7.70;;;;;;;16.34;68.27;101722.84;4907573;28;120337;-71
2022/10/04 01:27:01;;;;;;;16.60;7.50;;;;;;;16.36;68.00;101717.59;4907969;28;120030;-72
2022/10/04 01:29:30;;;;;;;19.48;7.35;;;;;;;16.37;68.65;101718.38;4911261;28;119702;-72
2022/10/04 01:31:59;;;;;;;14.93;7.53;;;;;;;16.35;68.70;101710.53;4912638;28;120185;-72
2022/10/04 01:34:28;;;;;;;16.20;6.67;;;;;;;16.38;68.57;101709.59;4909582;28;119552;-71
2022/10/04 01:36:56;;;;;;;18.88;6.63;;;;;;;16.41;68.41;101708.66;4906147;28;120987;-72
2022/10/04 01:39:24;;;;;;;16.10;6.70;;;;;;;16.43;68.47;101711.72;4909049;28;120266;-72
2022/10/04 01:42:06;;;;;;;15.23;6.40;;;;;;;16.41;68.29;101703.13;4886805;28;119922;-71
2022/10/04 01:44:38;;;;;;;19.27;7.70;;;;;;;16.44;68.83;101707.72;4908495;28;120062;-71
2022/10/04 01:47:12;;;;;;;17.48;6.70;;;;;;;16.41;68.53;101692.03;4915705;28;120662;-71
2022/10/04 01:49:42;;;;;;;14.83;7.97;;;;;;;16.44;68.36;101706.94;4920188;28;120619;-71
2022/10/04 01:52:14;;;;;;;13.35;7.20;;;;;;;16.41;68.05;101703.13;4908343;28;120200;-71
2022/10/04 01:54:44;;;;;;;15.93;7.82;;;;;;;16.38;67.90;101695.75;4910206;28;119797;-71
2022/10/04 01:57:14;;;;;;;16.83;8.93;;;;;;;16.40;68.37;101696.03;4912728;28;120159;-71
2022/10/04 01:59:48;;;;;;;18.63;8.80;;;;;;;16.39;68.30;101691.75;4912809;28;119952;-72
2022/10/04 02:02:21;;;;;;;20.60;9.00;;;;;;;16.39;68.18;101697.28;4910674;28;119821;-72
2022/10/04 02:04:53;;;;;;;18.10;8.88;;;;;;;16.36;68.05;101684.38;4924142;28;120005;-71
2022/10/04 02:07:20;;;;;;;17.47;9.10;;;;;;;16.34;67.82;101680.53;4927691;28;120456;-71
2022/10/04 02:09:53;;;;;;;17.60;9.77;;;;;;;16.26;68.07;101669.00;4897242;28;120042;-71
2022/10/04 02:12:19;;;;;;;24.55;10.02;;;;;;;16.27;67.77;101665.00;4927803;28;120129;-71
2022/10/04 02:15:13;;;;;;;21.67;9.67;;;;;;;16.20;67.83;101677.16;4910845;28;120006;-71
2022/10/04 02:17:44;;;;;;;22.60;9.07;;;;;;;16.15;67.88;101660.44;4910649;28;119434;-71
2022/10/04 02:20:20;;;;;;;37.35;8.90;;;;;;;16.11;68.11;101668.13;4898117;28;120343;-71
2022/10/04 02:22:50;;;;;;;25.98;8.70;;;;;;;16.07;68.40;101662.72;4909474;28;119533;-71
2022/10/04 02:25:19;;;;;;;19.42;9.20;;;;;;;16.06;68.40;101665.97;4908097;28;119587;-71
2022/10/04 02:27:45;;;;;;;16.90;9.23;;;;;;;16.06;68.41;101661.19;4917711;28;119971;-71
2022/10/04 02:30:16;;;;;;;20.08;9.23;;;;;;;16.05;67.95;101667.19;4905624;28;120084;-72
2022/10/04 02:32:58;;;;;;;21.83;9.98;;;;;;;16.03;68.22;101666.91;4892418;28;119518;-71
2022/10/04 02:35:33;;;;;;;15.25;10.20;;;;;;;16.07;68.45;101661.97;4924607;28;119704;-71
2022/10/04 02:38:21;;;;;;;21.95;10.88;;;;;;;16.07;68.82;101668.28;4891046;28;120636;-71
2022/10/04 02:40:56;;;;;;;21.17;10.50;;;;;;;16.10;69.05;101656.28;4906073;28;120257;-71
2022/10/04 02:44:01;;;;;;;17.33;9.85;;;;;;;16.14;69.20;101650.59;4889503;28;120365;-71
2022/10/04 02:46:31;;;;;;;18.75;10.05;;;;;;;16.16;68.69;101646.13;4903539;28;119891;-71
2022/10/04 02:49:03;;;;;;;18.33;10.52;;;;;;;16.14;69.00;101642.28;4905754;28;120259;-71
2022/10/04 02:51:39;;;;;;;17.42;10.02;;;;;;;16.20;69.02;101634.88;4910167;28;120005;-71
2022/10/04 02:55:05;;;;;;;15.45;9.88;;;;;;;16.20;69.04;101645.94;4907513;28;120089;-71
2022/10/04 02:57:33;;;;;;;16.45;10.00;;;;;;;16.18;69.00;101635.34;4911580;28;120011;-72
2022/10/04 03:00:23;;;;;;;17.98;10.10;;;;;;;16.23;68.68;101631.19;4912606;28;119935;-71
2022/10/04 03:03:08;;;;;;;18.17;10.27;;;;;;;16.24;69.01;101643.78;4907436;28;120046;-71
2022/10/04 03:05:34;;;;;;;16.27;10.15;;;;;;;16.23;68.40;101622.88;4905889;28;120323;-72
2022/10/04 03:08:00;;;;;;;18.58;10.48;;;;;;;16.27;69.01;101629.78;4906878;28;119940;-71
2022/10/04 03:10:26;;;;;;;17.87;10.20;;;;;;;16.29;69.11;101621.00;4908382;28;120033;-72
2022/10/04 03:12:52;;;;;;;17.75;10.27;;;;;;;16.34;69.05;101633.47;4908417;28;120055;-71
2022/10/04 03:15:19;;;;;;;18.45;10.50;;;;;;;16.37;68.76;101619.44;4906161;28;120003;-71
2022/10/04 03:17:45;;;;;;;17.55;10.32;;;;;;;16.41;68.77;101627.59;4911797;28;119485;-72
2022/10/04 03:20:15;;;;;;;17.57;10.90;;;;;;;16.43;68.66;101627.88;4909440;28;119857;-71
2022/10/04 03:22:44;;;;;;;19.35;10.90;;;;;;;16.43;68.84;101627.88;4911697;28;119933;-72
2022/10/04 03:25:27;;;;;;;18.67;10.57;;;;;;;16.43;68.89;101625.88;4905172;28;120152;-72
2022/10/04 03:27:58;;;;;;;15.87;10.57;;;;;;;16.47;69.12;101618.16;4908243;28;119914;-71
2022/10/04 03:30:24;;;;;;;16.80;10.77;;;;;;;16.43;68.93;101600.94;4888131;28;120884;-72
2022/10/04 03:32:50;;;;;;;14.77;10.65;;;;;;;16.46;68.55;101599.25;4907334;28;119600;-71
2022/10/04 03:35:44;;;;;;;17.65;11.25;;;;;;;16.44;68.58;101596.94;4908126;28;120310;-72
2022/10/04 03:38:11;;;;;;;17.67;10.75;;;;;;;16.44;68.65;101601.72;4907846;28;120146;-71
2022/10/04 03:40:44;;;;;;;17.27;11.33;;;;;;;16.42;68.95;101613.28;4908304;28;119923;-72
2022/10/04 03:43:42;;;;;;;14.93;11.60;;;;;;;16.38;68.58;101617.44;4909382;28;119602;-72
2022/10/04 03:46:09;;;;;;;15.43;10.82;;;;;;;16.41;69.05;101614.50;4907468;28;119896;-71
2022/10/04 03:48:45;;;;;;;15.50;11.25;;;;;;;16.40;68.67;101623.28;4906597;28;120307;-71
2022/10/04 03:51:18;;;;;;;16.43;11.40;;;;;;;16.35;68.74;101616.38;4906741;28;121458;-72
2022/10/04 03:53:48;;;;;;;16.92;11.50;;;;;;;16.35;69.03;101610.84;4907099;28;119915;-72
2022/10/04 03:56:17;;;;;;;23.58;12.18;;;;;;;16.35;69.02;101608.06;4908672;28;119824;-71
2022/10/04 03:59:05;;;;;;;16.97;11.50;;;;;;;16.34;68.91;101605.78;4910195;28;119763;-72
2022/10/04 04:01:48;;;;;;;16.97;11.37;;;;;;;16.36;69.01;101606.84;4907171;28;120133;-72
2022/10/04 04:05:15;;;;;;;16.80;11.18;;;;;;;16.37;69.21;101613.91;4891201;28;119967;-71
2022/10/04 04:07:48;;;;;;;19.07;11.70;;;;;;;16.37;68.94;101605.59;4908243;28;119495;-72
2022/10/04 04:10:43;;;;;;;16.83;11.15;;;;;;;16.42;68.81;101607.72;4907817;28;120035;-71
2022/10/04 04:13:45;;;;;;;17.20;11.18;;;;;;;16.41;68.62;101610.97;4899440;28;120569;-71
2022/10/04 04:16:11;;;;;;;17.95;11.27;;;;;;;16.38;68.67;101601.59;4900439;28;119957;-72
2022/10/04 04:18:42;;;;;;;20.23;12.10;;;;;;;16.39;68.71;101600.38;4904131;28;119321;-71
2022/10/04 04:21:13;;;;;;;18.93;12.13;;;;;;;16.36;68.84;101593.00;4894442;28;121437;-71
2022/10/04 04:23:47;;;;;;;19.75;12.02;;;;;;;16.39;68.98;101599.59;4906701;28;119907;-71
2022/10/04 04:26:41;;;;;;;18.23;12.07;;;;;;;16.38;68.85;101604.38;4907894;28;119693;-71
2022/10/04 04:29:09;;;;;;;20.55;12.38;;;;;;;16.39;69.10;101605.91;4901354;28;120683;-71
2022/10/04 04:31:43;;;;;;;19.80;11.80;;;;;;;16.35;69.09;101582.38;4913998;28;120054;-72
2022/10/04 04:34:26;;;;;;;21.15;12.50;;;;;;;16.41;69.09;101597.88;4902400;28;122034;-71
2022/10/04 04:36:57;;;;;;;17.98;11.48;;;;;;;16.39;68.75;101594.06;4904433;28;119959;-71
2022/10/04 04:39:33;;;;;;;18.52;11.65;;;;;;;16.45;68.73;101594.94;4921737;28;119832;-71
2022/10/04 04:42:06;;;;;;;19.63;11.60;;;;;;;16.46;68.87;101593.72;4907739;28;119775;-71
2022/10/04 04:44:32;;;;;;;21.13;12.30;;;;;;;16.41;68.92;101570.19;4906015;28;119980;-72
2022/10/04 04:46:59;;;;;;;20.45;11.55;;;;;;;16.48;68.72;101586.47;4904873;28;120176;-72
2022/10/04 04:49:28;;;;;;;18.08;11.32;;;;;;;16.48;68.81;101578.16;4908531;28;119498;-71
2022/10/04 04:51:56;;;;;;;17.17;11.20;;;;;;;16.52;69.00;101581.50;4904539;28;119970;-71
2022/10/04 04:54:26;;;;;;;18.93;11.33;;;;;;;16.50;68.82;101566.59;4913470;28;119849;-71
2022/10/04 04:56:54;;;;;;;20.30;10.93;;;;;;;16.54;69.31;101579.03;4905086;28;120087;-71
2022/10/04 04:59:26;;;;;;;19.43;10.77;;;;;;;16.55;68.69;101569.50;4903698;28;120111;-71
2022/10/04 05:01:52;;;;;;;23.15;10.90;;;;;;;16.56;68.62;101553.63;4904907;28;119609;-71
2022/10/04 05:04:22;;;;;;;23.10;11.43;;;;;;;16.55;68.70;101544.56;4904573;28;119480;-72
2022/10/04 05:07:03;;;;;;;22.20;10.82;;;;;;;16.55;68.79;101550.09;4904849;28;119914;-71
2022/10/04 05:09:37;;;;;;;18.50;11.18;;;;;;;16.52;68.54;101545.50;4905444;28;120193;-72
2022/10/04 05:12:02;;;;;;;24.95;11.57;;;;;;;16.56;68.89;101553.63;4902523;28;119673;-72
2022/10/04 05:14:36;;;;;;;22.50;11.23;;;;;;;16.51;68.87;101543.22;4902233;28;120793;-72
2022/10/04 05:17:02;;;;;;;20.98;11.25;;;;;;;16.56;69.13;101542.56;4909078;28;120086;-72
2022/10/04 05:19:32;;;;;;;20.83;11.23;;;;;;;16.52;69.02;101536.44;4908641;28;119787;-72
2022/10/04 05:22:07;;;;;;;22.15;10.80;;;;;;;16.54;68.65;101542.25;4901098;28;120099;-72
2022/10/04 05:24:41;;;;;;;22.88;11.18;;;;;;;16.55;68.93;101539.03;4904803;28;120325;-71
2022/10/04 05:27:37;;;;;;;22.70;11.18;;;;;;;16.56;68.71;101543.34;4906978;28;119890;-71
2022/10/04 05:30:21;;;;;;;21.35;11.30;;;;;;;16.55;68.63;101541.78;4903480;28;119831;-71
2022/10/04 05:33:00;;;;;;;22.48;11.48;;;;;;;16.56;68.82;101532.28;4906981;28;119523;-71
2022/10/04 05:35:28;;;;;;;20.97;11.43;;;;;;;16.56;68.62;101543.34;4904184;28;119518;-71
2022/10/04 05:37:54;;;;;;;20.85;10.95;;;;;;;16.56;68.88;101537.81;4905355;28;120149;-71
2022/10/04 05:40:34;;;;;;;22.23;10.97;;;;;;;16.58;68.87;101540.88;4912574;28;120501;-72
2022/10/04 05:43:00;;;;;;;23.08;11.20;;;;;;;16.60;68.87;101542.41;4907947;28;119556;-71
2022/10/04 05:45:28;;;;;;;22.05;11.18;;;;;;;16.62;69.01;101545.47;4910347;28;120341;-74
2022/10/04 05:48:00;;;;;;;24.02;11.55;;;;;;;16.65;68.90;101539.75;4903794;28;119775;-72
2022/10/04 05:50:49;;;;;;;25.02;11.20;;;;;;;16.68;69.46;101546.38;4923673;28;119967;-71
2022/10/04 05:53:31;;;;;;;22.13;11.02;;;;;;;16.71;69.16;101546.19;4910172;28;119843;-72
2022/10/04 05:56:36;;;;;;;23.30;10.63;;;;;;;16.72;69.19;101542.19;4893187;28;119554;-71
2022/10/04 05:59:26;;;;;;;25.03;11.00;;;;;;;16.76;69.62;101550.31;4899829;28;119949;-74
2022/10/04 06:01:56;;;;;;;23.17;10.40;;;;;;;16.78;69.35;101542.28;4912904;28;120029;-71
2022/10/04 06:05:16;;;;;;;27.88;11.00;;;;;;;16.82;69.30;101551.97;4899297;28;119906;-73
2022/10/04 06:08:07;;;;;;;24.77;10.60;;;;;;;16.86;69.33;101549.03;4908112;28;119736;-72
2022/10/04 06:10:56;;;;;;;27.33;10.77;;;;;;;16.92;69.34;101549.91;4909133;28;119921;-72
2022/10/04 06:14:05;;;;;;;30.85;11.30;;;;;;;16.94;69.48;101549.44;4905901;28;119868;-72
2022/10/04 06:16:43;;;;;;;26.52;11.20;;;;;;;16.97;69.35;101535.38;4909096;28;119647;-72
2022/10/04 06:19:40;;;;;;;30.00;10.98;;;;;;;17.01;69.36;101544.28;4923239;28;120482;-71
2022/10/04 06:22:18;;;;;;;25.92;10.35;;;;;;;17.05;69.39;101533.78;4907085;28;120048;-72
2022/10/04 06:24:51;;;;;;;23.92;10.40;;;;;;;17.07;69.46;101536.09;4904986;28;120606;-71
2022/10/04 06:27:40;;;;;;;25.58;10.50;;;;;;;17.09;69.09;101539.91;4912021;28;119298;-71
2022/10/04 06:30:13;;;;;;;27.10;10.77;;;;;;;17.11;69.27;101542.97;4903024;28;119520;-74
2022/10/04 06:33:01;;;;;;;22.88;9.80;;;;;;;17.17;69.21;101541.06;4921426;28;119871;-72
2022/10/04 06:35:39;;;;;;;25.92;10.27;;;;;;;17.18;69.24;101537.06;4904353;28;120121;-72
2022/10/04 06:38:26;;;;;;;24.70;10.07;;;;;;;17.27;68.96;101543.75;4901154;28;120007;-71
2022/10/04 06:41:24;;;;;;;27.60;10.50;;;;;;;17.31;69.16;101555.44;4911161;28;119647;-71
2022/10/04 06:44:18;;;;;;;25.23;9.70;;;;;;;17.35;68.76;101553.25;4907506;28;120136;-70
2022/10/04 06:46:50;;;;;;;29.25;10.77;;;;;;;17.38;68.85;101557.84;4909076;28;120056;-71
2022/10/04 06:49:37;;;;;;;27.10;10.13;;;;;;;17.44;69.00;101565.00;4906194;28;119774;-71
2022/10/04 06:52:06;;;;;;;29.08;9.88;;;;;;;17.48;69.04;101559.28;4912786;28;120424;-73
2022/10/04 06:54:47;;;;;;;27.75;10.20;;;;;;;17.53;68.82;101557.88;4912335;28;120412;-72
2022/10/04 06:58:01;;;;;;;28.40;10.57;;;;;;;17.53;68.46;101560.63;4909649;28;119863;-72
2022/10/04 07:00:30;;;;;;;26.73;9.87;;;;;;;17.54;68.58;101554.59;4908388;28;120154;-72
2022/10/04 07:03:15;;;;;;;24.70;10.50;;;;;;;17.57;68.39;101553.66;4908682;28;119754;-72
2022/10/04 07:05:53;;;;;;;27.98;10.38;;;;;;;17.61;68.49;101559.00;4907096;28;120013;-73
2022/10/04 07:08:31;;;;;;;24.98;9.90;;;;;;;17.59;68.67;101558.72;4924468;28;119681;-73
2022/10/04 07:11:13;;;;;;;28.27;10.25;;;;;;;17.59;68.56;101555.94;4890611;28;119929;-72
2022/10/04 07:14:16;;;;;;;26.45;10.02;;;;;;;17.61;68.45;101561.78;4909601;28;120126;-71
2022/10/04 07:16:54;;;;;;;25.90;10.45;;;;;;;17.57;68.62;101550.88;4911349;28;119872;-71
2022/10/04 07:19:37;;;;;;;24.47;10.03;;;;;;;17.63;68.58;101565.59;4908569;28;120413;-72
2022/10/04 07:22:06;;;;;;;25.88;9.98;;;;;;;17.67;68.52;101557.88;4907622;28;120262;-71
2022/10/04 07:24:56;;;;;;;25.73;9.98;;;;;;;17.70;68.55;101556.16;4906777;28;120188;-73
2022/10/04 07:27:40;;;;;;;24.83;10.10;;;;;;;17.75;68.67;101561.06;4906793;28;119641;-70
2022/10/04 07:30:09;;;;;;;26.25;10.65;;;;;;;17.78;68.46;101558.09;4909054;28;119786;-71
2022/10/04 07:32:50;;;;;;;29.08;11.27;;;;;;;17.84;68.66;101557.41;4896745;28;120151;-73
2022/10/04 07:35:22;;;;;;;24.58;10.93;;;;;;;17.86;68.54;101552.91;4922982;28;121075;-73
2022/10/04 07:38:07;;;;;;;27.95;11.50;;;;;;;17.90;68.25;101558.25;4905258;28;120222;-73
2022/10/04 07:40:38;;;;;;;27.13;11.27;;;;;;;17.93;68.45;101555.28;4922578;28;121059;-74
2022/10/04 07:43:28;;;;;;;29.42;11.27;;;;;;;17.97;68.43;101555.84;4917422;28;119827;-73
2022/10/04 07:46:11;;;;;;;29.75;11.32;;;;;;;17.98;68.30;101543.53;4907581;28;119748;-72
2022/10/04 07:48:40;;;;;;;27.23;11.67;;;;;;;18.03;68.20;101547.63;4904312;28;119504;-72
2022/10/04 07:51:34;;;;;;;29.13;11.90;;;;;;;18.07;68.04;101550.97;4905717;28;119614;-72
2022/10/04 07:54:09;;;;;;;26.95;11.88;;;;;;;18.08;68.20;101553.25;4923191;28;119725;-72
2022/10/04 07:56:50;;;;;;;27.05;11.73;;;;;;;18.13;68.19;101556.59;4906488;28;120057;-73
2022/10/04 07:59:54;;;;;;;30.27;12.00;;;;;;;18.21;68.36;101555.69;4914862;28;120059;-72
2022/10/04 08:02:43;;;;;;;25.30;11.13;;;;;;;18.26;68.40;101557.81;4911523;28;119916;-71
2022/10/04 08:05:44;;;;;;;28.47;11.07;;;;;;;18.32;67.78;101564.22;4895060;28;122352;-72
2022/10/04 08:08:16;;;;;;;24.37;11.10;;;;;;;18.38;67.71;101570.59;4905010;28;119939;-71
2022/10/04 08:10:55;;;;;;;28.55;11.77;;;;;;;18.46;67.83;101573.00;4911266;28;119628;-71
2022/10/04 08:13:46;;;;;;;32.88;11.30;;;;;;;18.48;67.50;101573.28;4907251;28;119921;-71
2022/10/04 08:16:30;;;;;;;26.52;12.18;;;;;;;18.55;67.65;101581.19;4908993;28;119701;-71
2022/10/04 08:19:22;;;;;;;28.30;11.93;;;;;;;18.59;67.40;101576.19;4906266;28;120308;-71
2022/10/04 08:22:00;;;;;;;26.52;11.02;;;;;;;18.59;67.42;101565.84;4891471;28;119602;-71
2022/10/04 08:25:18;;;;;;;28.23;11.77;;;;;;;18.68;67.45;101574.06;4903838;28;119965;-71
2022/10/04 08:31:02;;;;;;;27.75;11.68;;;;;;;18.76;67.08;101579.25;4912607;28;120192;-71
2022/10/04 08:33:50;;;;;;;29.25;11.30;;;;;;;18.81;67.01;101573.75;4904958;28;120674;-71
2022/10/04 08:36:54;;;;;;;26.35;11.50;;;;;;;18.85;66.85;101565.97;4906985;28;119822;-71
2022/10/04 08:40:24;;;;;;;29.98;11.48;;;;;;;18.94;66.66;101556.72;4906127;28;119819;-71
2022/10/04 08:43:45;;;;;;;27.98;11.35;;;;;;;18.95;66.30;101547.91;4905170;28;120255;-71
2022/10/04 08:46:19;;;;;;;26.43;10.67;;;;;;;18.96;65.85;101554.22;4907739;28;119989;-71
2022/10/04 08:49:09;;;;;;;22.23;10.93;;;;;;;19.02;66.43;101557.81;4905690;28;120036;-71
2022/10/04 08:51:49;;;;;;;27.00;11.20;;;;;;;19.07;66.23;101559.13;4885697;28;120258;-71
2022/10/04 08:54:39;;;;;;;24.27;10.70;;;;;;;19.15;66.01;101557.44;4909694;28;120236;-71
2022/10/04 08:57:43;;;;;;;39.35;11.93;;;;;;;19.17;66.11;101557.75;4905289;28;119963;-71
2022/10/04 09:00:12;;;;;;;29.53;11.00;;;;;;;19.13;65.56;101557.94;4906020;28;120298;-71
2022/10/04 09:03:05;;;;;;;30.98;11.07;;;;;;;19.16;65.45;101553.41;4907126;28;120261;-71
2022/10/04 09:05:49;;;;;;;28.10;12.23;;;;;;;19.12;65.65;101550.09;4906044;28;119973;-71
2022/10/04 09:08:27;;;;;;;34.13;11.60;;;;;;;19.18;65.96;101539.81;4902138;28;119910;-71
2022/10/04 09:11:40;;;;;;;26.70;10.65;;;;;;;19.29;65.98;101543.47;4908659;28;119731;-70
2022/10/04 09:14:41;;;;;;;27.55;11.43;;;;;;;19.42;65.52;101533.97;4901372;28;119852;-71
2022/10/04 09:17:25;;;;;;;30.55;11.35;;;;;;;19.51;65.13;101531.03;4910194;28;120451;-71
2022/10/04 09:20:20;;;;;;;21.05;10.00;;;;;;;19.65;65.81;101534.97;4917327;28;119994;-70
2022/10/04 09:22:47;;;;;;;25.95;10.20;;;;;;;19.79;65.30;101529.25;4918298;28;120004;-71
2022/10/04 09:25:52;;;;;;;26.48;9.90;;;;;;;19.86;64.43;101522.47;4913602;28;120120;-72
2022/10/04 09:28:30;;;;;;;30.10;9.02;;;;;;;19.73;63.96;101516.56;4927121;28;119957;-72
2022/10/04 09:31:17;;;;;;;22.73;8.52;;;;;;;19.70;64.26;101509.97;4918286;28;120005;-70
2022/10/04 09:34:12;;;;;;;19.15;7.78;;;;;;;19.67;64.07;101515.75;4912177;28;119531;-71
2022/10/04 09:37:11;;;;;;;18.60;7.82;;;;;;;19.60;63.87;101501.03;4912751;28;119598;-71
2022/10/04 09:39:46;;;;;;;22.15;7.30;;;;;;;19.67;63.80;101510.19;4909113;28;119717;-71
2022/10/04 09:42:54;;;;;;;;;;;;;;;19.64;63.44;101511.94;4908773;28;119732;-72
2022/10/04 09:45:40;;;;;;;23.33;8.20;;;;;;;19.68;63.40;101514.50;4930089;28;119714;-72
2022/10/04 09:48:17;;;;;;;22.60;7.45;;;;;;;19.66;63.12;101525.38;4915799;28;120184;-72
2022/10/04 09:51:15;;;;;;;20.40;7.22;;;;;;;19.60;63.24;101516.94;4920697;28;120018;-71
2022/10/04 09:53:51;;;;;;;22.17;6.80;;;;;;;19.61;63.56;101519.25;4927705;28;119823;-71
2022/10/04 09:56:39;;;;;;;22.23;7.28;;;;;;;19.64;63.66;101520.31;4916821;28;120062;-71
2022/10/04 09:59:40;;;;;;;20.40;7.85;;;;;;;19.65;63.23;101510.69;4905948;28;120340;-71
2022/10/04 10:02:08;;;;;;;19.42;7.10;;;;;;;19.67;63.28;101518.53;4882913;28;119620;-71
2022/10/04 10:04:50;;;;;;;24.67;7.05;;;;;;;19.68;63.49;101503.38;4906150;28;119951;-72
2022/10/04 10:07:34;;;;;;;28.38;7.88;;;;;;;19.73;63.09;101508.22;4918777;28;120024;-72
2022/10/04 10:13:41;;;;;;;18.27;6.63;;;;;;;19.77;61.62;101519.88;4907546;28;120503;-72
2022/10/04 10:16:18;;;;;;;18.77;6.33;;;;;;;19.69;61.09;101513.25;4907375;28;120038;-72
2022/10/04 10:18:59;;;;;;;15.60;5.32;;;;;;;19.65;61.40;101501.56;4908321;28;119899;-72
2022/10/04 10:21:29;;;;;;;21.38;6.68;;;;;;;19.65;61.19;101510.69;4907044;28;120029;-71
2022/10/04 10:24:20;;;;;;;22.10;6.03;;;;;;;19.71;61.30;101505.16;4906755;28;120232;-71
2022/10/04 10:26:55;;;;;;;19.95;6.05;;;;;;;19.80;61.75;101510.53;4902274;28;120284;-71
2022/10/04 10:30:02;;;;;;;12.98;5.00;;;;;;;19.96;61.59;101498.75;4905932;28;119752;-71
2022/10/04 10:32:57;;;;;;;18.50;5.60;;;;;;;20.09;60.72;101496.31;4904395;28;119705;-71
2022/10/04 10:35:48;;;;;;;15.95;5.40;;;;;;;20.18;60.77;101498.16;4909078;28;119646;-71
2022/10/04 10:38:17;;;;;;;19.70;6.75;;;;;;;20.24;59.89;101510.06;4905853;28;120020;-71
2022/10/04 10:41:31;;;;;;;22.17;6.90;;;;;;;20.24;59.89;101508.06;4908407;28;119839;-72
2022/10/04 10:44:08;;;;;;;21.52;6.68;;;;;;;20.18;59.06;101507.25;4908737;28;120342;-72
2022/10/04 10:47:14;;;;;;;15.68;6.47;;;;;;;20.04;58.60;101505.38;4907856;28;120219;-71
2022/10/04 10:49:54;;;;;;;20.55;6.75;;;;;;;19.97;58.81;101502.31;4911120;28;119677;-72
2022/10/04 10:52:41;;;;;;;20.83;6.63;;;;;;;19.90;58.70;101517.47;4907529;28;120038;-72
2022/10/04 10:55:25;;;;;;;16.60;5.65;;;;;;;19.83;58.81;101513.09;4913034;28;120146;-72
2022/10/04 10:58:06;;;;;;;14.38;5.47;;;;;;;19.78;58.88;101510.28;4911923;28;119677;-71
2022/10/04 11:00:56;;;;;;;20.63;6.28;;;;;;;19.77;59.08;101509.50;4898325;28;119704;-71
2022/10/04 11:03:35;;;;;;;14.77;5.65;;;;;;;19.88;58.93;101509.59;4908320;28;120075;-72
2022/10/04 11:06:07;;;;;;;16.17;5.55;;;;;;;19.98;59.08;101501.81;4904605;28;120124;-71
2022/10/04 11:08:35;;;;;;;18.52;4.95;;;;;;;20.03;58.04;101503.88;4903791;28;119665;-71
2022/10/04 11:11:17;;;;;;;15.63;4.57;;;;;;;20.06;57.81;101494.50;4914644;28;119783;-70
2022/10/04 11:14:10;;;;;;;12.52;4.07;;;;;;;20.12;57.33;101495.34;4905640;28;120277;-71
2022/10/04 11:16:52;;;;;;;14.13;3.95;;;;;;;20.18;57.64;101490.56;4907359;28;119952;-72
2022/10/04 11:19:52;;;;;;;12.98;4.25;;;;;;;20.27;57.56;101495.16;4905656;28;119850;-72
2022/10/04 11:22:49;;;;;;;18.90;4.95;;;;;;;20.37;57.30;101487.34;4908078;28;120371;-72
2022/10/04 11:25:38;;;;;;;12.93;4.13;;;;;;;20.45;56.98;101483.63;4907175;28;121413;-71
2022/10/04 11:28:25;;;;;;;13.82;3.95;;;;;;;20.49;55.83;101472.22;4910418;28;120485;-71
2022/10/04 11:31:00;;;;;;;14.02;3.42;;;;;;;20.40;55.29;101478.00;4896921;28;120308;-72
2022/10/04 11:33:44;;;;;;;14.50;4.15;;;;;;;20.30;55.86;101471.84;4908500;28;119973;-72
2022/10/04 11:36:48;;;;;;;15.75;3.85;;;;;;;20.10;55.28;101475.53;4905818;28;120444;-72
2022/10/04 11:39:30;;;;;;;11.77;3.53;;;;;;;19.99;56.18;101469.16;4858651;28;119737;-72
2022/10/04 11:42:01;;;;;;;14.95;4.50;;;;;;;19.95;56.15;101483.31;4908269;28;120025;-72
2022/10/04 11:44:47;;;;;;;10.68;3.78;;;;;;;19.97;56.20;101469.66;4906858;28;119716;-72
2022/10/04 11:47:47;;;;;;;14.98;3.78;;;;;;;20.01;56.00;101475.75;4910757;28;120009;-71
2022/10/04 11:50:21;;;;;;;15.38;4.22;;;;;;;20.02;56.44;101473.72;4908057;28;120169;-72
2022/10/04 11:53:02;;;;;;;12.52;5.30;;;;;;;20.09;55.78;101478.81;4912774;28;120069;-71
2022/10/04 11:56:03;;;;;;;14.65;4.95;;;;;;;20.21;56.26;101467.25;4923194;28;119985;-72
2022/10/04 11:59:04;;;;;;;9.55;3.22;;;;;;;20.31;55.89;101475.41;4900539;28;120317;-72
2022/10/04 12:01:46;;;;;;;11.82;3.55;;;;;;;20.33;55.61;101481.22;4909796;28;120088;-72
2022/10/04 12:04:27;;;;;;;14.13;4.20;;;;;;;20.23;54.70;101473.09;4905937;28;120061;-71
2022/10/04 12:07:12;;;;;;;9.05;3.90;;;;;;;20.17;55.48;101471.56;4920922;28;120912;-72
2022/10/04 12:10:45;;;;;;;15.43;4.75;;;;;;;20.17;55.70;101466.75;4916041;28;119665;-71
2022/10/04 12:13:46;;;;;;;12.18;4.10;;;;;;;20.13;55.52;101473.81;4866428;28;120220;-71
2022/10/04 12:16:30;;;;;;;12.43;4.28;;;;;;;20.13;55.38;101466.22;4891796;28;120182;-72